BLINR41 KSUU-KSUU
Flight info
| Callsign | BLINR41 |
|---|---|
| Flight time | N/A |
| Altitude | 24000 |
| Route | BESSA2 ILA TOCOS ENI302061 ENI239017 ENI155050 SNS291053 SNS174038 SNS137102 NURAY BMBER1 |
| Aircraft | C17/H-SDE1E2FGHIJ5RTUWXY/LB1D1 |
Departure
| Time | 2026-05-04 14:59 |
|---|---|
| Airport | Travis Air Force Base (KSUU) |
Arrival
| Time | N/A |
|---|---|
| Airport | Travis Air Force Base (KSUU) |
| Time | Latitude | Longitude | Altitude | Speed | Heading |
|---|---|---|---|---|---|
| 2026-05-04 14:31 | 38.26357 | -121.93899 | 54 ft | 0 kts | 180° |
| 2026-05-04 14:54 | 38.26333 | -121.93887 | 54 ft | 6 kts | 134° |
| 2026-05-04 14:54 | 38.26304 | -121.93847 | 47 ft | 6 kts | 144° |
| 2026-05-04 14:54 | 38.26266 | -121.93809 | 46 ft | 8 kts | 129° |
| 2026-05-04 14:55 | 38.26253 | -121.93734 | 47 ft | 10 kts | 91° |
| 2026-05-04 14:55 | 38.26251 | -121.93647 | 54 ft | 10 kts | 92° |
| 2026-05-04 14:55 | 38.26248 | -121.93558 | 49 ft | 12 kts | 94° |
| 2026-05-04 14:55 | 38.26243 | -121.93444 | 49 ft | 13 kts | 91° |
| 2026-05-04 14:56 | 38.26241 | -121.93333 | 52 ft | 12 kts | 91° |
| 2026-05-04 14:56 | 38.26240 | -121.93229 | 55 ft | 11 kts | 90° |
| 2026-05-04 14:56 | 38.26239 | -121.93136 | 53 ft | 10 kts | 90° |
| 2026-05-04 14:56 | 38.26223 | -121.93090 | 56 ft | 3 kts | 177° |
| 2026-05-04 14:57 | 38.26196 | -121.93110 | 48 ft | 7 kts | 224° |
| 2026-05-04 14:57 | 38.26180 | -121.93131 | 55 ft | 0 kts | 227° |
| 2026-05-04 14:58 | 38.26103 | -121.93238 | 50 ft | 45 kts | 227° |
| 2026-05-04 14:59 | 38.25754 | -121.93719 | 46 ft | 100 kts | 227° |
| 2026-05-04 14:59 | 38.25192 | -121.94502 | 74 ft | 134 kts | 228° |
| 2026-05-04 14:59 | 38.24040 | -121.96257 | 1090 ft | 127 kts | 230° |
| 2026-05-04 15:00 | 38.23448 | -121.97138 | 1515 ft | 135 kts | 228° |
| 2026-05-04 15:00 | 38.22868 | -121.97989 | 2201 ft | 116 kts | 229° |
| 2026-05-04 15:00 | 38.22338 | -121.98770 | 2576 ft | 124 kts | 229° |
| 2026-05-04 15:01 | 38.21253 | -122.00703 | 3145 ft | 137 kts | 237° |
| 2026-05-04 15:01 | 38.20728 | -122.01702 | 3405 ft | 135 kts | 237° |
| 2026-05-04 15:01 | 38.20339 | -122.02757 | 3574 ft | 136 kts | 268° |
| 2026-05-04 15:01 | 38.20418 | -122.03975 | 3716 ft | 144 kts | 274° |
| 2026-05-04 15:02 | 38.20451 | -122.05309 | 3787 ft | 156 kts | 277° |
| 2026-05-04 15:02 | 38.21002 | -122.06512 | 3899 ft | 164 kts | 316° |
| 2026-05-04 15:02 | 38.21948 | -122.07320 | 4130 ft | 166 kts | 337° |
| 2026-05-04 15:02 | 38.23107 | -122.07602 | 4198 ft | 179 kts | 353° |
| 2026-05-04 15:03 | 38.24467 | -122.07819 | 4113 ft | 212 kts | 351° |
| 2026-05-04 15:03 | 38.25999 | -122.08121 | 4332 ft | 232 kts | 350° |
| 2026-05-04 15:03 | 38.27644 | -122.08440 | 4686 ft | 246 kts | 351° |
| 2026-05-04 15:03 | 38.29386 | -122.08781 | 5085 ft | 258 kts | 351° |
| 2026-05-04 15:04 | 38.31192 | -122.09141 | 5542 ft | 267 kts | 351° |
| 2026-05-04 15:04 | 38.33049 | -122.09511 | 6044 ft | 272 kts | 350° |
| 2026-05-04 15:04 | 38.34936 | -122.09886 | 6574 ft | 277 kts | 350° |
| 2026-05-04 15:04 | 38.36856 | -122.10268 | 7103 ft | 282 kts | 351° |
| 2026-05-04 15:05 | 38.38826 | -122.10657 | 7680 ft | 290 kts | 351° |
| 2026-05-04 15:05 | 38.40829 | -122.11055 | 8390 ft | 292 kts | 351° |
| 2026-05-04 15:05 | 38.42842 | -122.11458 | 9113 ft | 293 kts | 351° |
| 2026-05-04 15:05 | 38.44865 | -122.11864 | 9785 ft | 295 kts | 351° |
| 2026-05-04 15:06 | 38.46905 | -122.12269 | 10377 ft | 300 kts | 351° |
| 2026-05-04 15:06 | 38.49000 | -122.12687 | 10810 ft | 310 kts | 352° |
| 2026-05-04 15:06 | 38.51160 | -122.13120 | 11240 ft | 319 kts | 352° |
| 2026-05-04 15:07 | 38.55653 | -122.14021 | 12121 ft | 334 kts | 353° |
| 2026-05-04 15:07 | 38.57956 | -122.14479 | 12658 ft | 335 kts | 355° |
| 2026-05-04 15:07 | 38.60257 | -122.14353 | 13221 ft | 331 kts | 12° |
| 2026-05-04 15:07 | 38.62519 | -122.13780 | 13772 ft | 332 kts | 13° |
| 2026-05-04 15:08 | 38.64787 | -122.13209 | 14326 ft | 332 kts | 13° |
| 2026-05-04 15:08 | 38.67059 | -122.12653 | 14864 ft | 333 kts | 13° |
| 2026-05-04 15:08 | 38.69340 | -122.12094 | 15387 ft | 336 kts | 13° |
| 2026-05-04 15:08 | 38.71704 | -122.11508 | 15899 ft | 356 kts | 13° |
| 2026-05-04 15:09 | 38.74163 | -122.10895 | 16545 ft | 373 kts | 13° |
| 2026-05-04 15:09 | 38.76751 | -122.10258 | 17279 ft | 386 kts | 13° |
| 2026-05-04 15:09 | 38.79428 | -122.09598 | 18051 ft | 397 kts | 13° |
| 2026-05-04 15:10 | 38.84958 | -122.08230 | 19779 ft | 412 kts | 13° |
| 2026-05-04 15:10 | 38.87792 | -122.07527 | 20621 ft | 418 kts | 13° |
| 2026-05-04 15:10 | 38.93570 | -122.06093 | 22325 ft | 427 kts | 14° |
| 2026-05-04 15:11 | 38.95550 | -122.05603 | 22896 ft | 430 kts | 14° |
| 2026-05-04 15:11 | 38.98528 | -122.04861 | 23355 ft | 442 kts | 14° |
| 2026-05-04 15:11 | 39.01572 | -122.04154 | 24135 ft | 448 kts | 9° |
| 2026-05-04 15:11 | 39.04673 | -122.04216 | 24903 ft | 457 kts | 355° |
| 2026-05-04 15:12 | 39.07771 | -122.05284 | 25725 ft | 467 kts | 341° |
| 2026-05-04 15:12 | 39.10617 | -122.07355 | 26551 ft | 476 kts | 326° |
| 2026-05-04 15:12 | 39.13088 | -122.10223 | 27384 ft | 480 kts | 320° |
| 2026-05-04 15:12 | 39.15470 | -122.13282 | 28199 ft | 489 kts | 318° |
| 2026-05-04 15:13 | 39.17918 | -122.16472 | 28671 ft | 512 kts | 319° |
| 2026-05-04 15:13 | 39.20393 | -122.19643 | 28451 ft | 489 kts | 319° |
| 2026-05-04 15:13 | 39.22769 | -122.22644 | 28037 ft | 467 kts | 320° |
| 2026-05-04 15:13 | 39.25037 | -122.25524 | 27620 ft | 448 kts | 320° |
| 2026-05-04 15:14 | 39.27222 | -122.28326 | 27085 ft | 439 kts | 320° |
| 2026-05-04 15:14 | 39.29387 | -122.31097 | 26567 ft | 439 kts | 320° |
| 2026-05-04 15:14 | 39.31560 | -122.33872 | 26057 ft | 439 kts | 320° |
| 2026-05-04 15:14 | 39.33717 | -122.36639 | 25547 ft | 435 kts | 320° |
| 2026-05-04 15:15 | 39.35847 | -122.39378 | 25033 ft | 429 kts | 320° |
| 2026-05-04 15:15 | 39.37962 | -122.42089 | 24520 ft | 428 kts | 320° |
| 2026-05-04 15:15 | 39.40077 | -122.44804 | 24009 ft | 426 kts | 320° |
| 2026-05-04 15:16 | 39.44225 | -122.50147 | 23427 ft | 420 kts | 320° |
| 2026-05-04 15:16 | 39.46307 | -122.52823 | 23166 ft | 423 kts | 320° |
| 2026-05-04 15:16 | 39.50421 | -122.58137 | 23057 ft | 417 kts | 319° |
| 2026-05-04 15:17 | 39.52491 | -122.60807 | 23040 ft | 422 kts | 319° |
| 2026-05-04 15:17 | 39.56630 | -122.66166 | 23043 ft | 419 kts | 319° |
| 2026-05-04 15:17 | 39.58695 | -122.68840 | 23048 ft | 420 kts | 319° |
| 2026-05-04 15:18 | 39.60767 | -122.71523 | 23048 ft | 422 kts | 319° |
| 2026-05-04 15:18 | 39.62839 | -122.74213 | 23045 ft | 421 kts | 319° |
| 2026-05-04 15:18 | 39.64905 | -122.76901 | 23042 ft | 420 kts | 319° |
| 2026-05-04 15:19 | 39.69035 | -122.82270 | 23040 ft | 421 kts | 319° |
| 2026-05-04 15:19 | 39.71104 | -122.84963 | 23048 ft | 421 kts | 319° |
| 2026-05-04 15:19 | 39.75212 | -122.90326 | 23044 ft | 420 kts | 319° |
| 2026-05-04 15:20 | 39.77274 | -122.93017 | 23040 ft | 420 kts | 319° |
| 2026-05-04 15:20 | 39.79340 | -122.95714 | 23035 ft | 421 kts | 319° |
| 2026-05-04 15:20 | 39.81406 | -122.98418 | 23040 ft | 421 kts | 319° |
| 2026-05-04 15:20 | 39.83467 | -123.01121 | 23043 ft | 420 kts | 319° |
| 2026-05-04 15:21 | 39.85526 | -123.03820 | 23046 ft | 420 kts | 320° |
| 2026-05-04 15:21 | 39.87588 | -123.06521 | 23041 ft | 421 kts | 319° |
| 2026-05-04 15:21 | 39.91714 | -123.11949 | 23041 ft | 420 kts | 319° |
| 2026-05-04 15:22 | 39.93526 | -123.14955 | 23027 ft | 429 kts | 303° |
| 2026-05-04 15:22 | 39.94623 | -123.18607 | 23049 ft | 439 kts | 285° |
| 2026-05-04 15:22 | 39.94335 | -123.26562 | 23053 ft | 446 kts | 258° |
| 2026-05-04 15:23 | 39.93614 | -123.30498 | 23054 ft | 448 kts | 257° |
| 2026-05-04 15:23 | 39.92855 | -123.34444 | 23052 ft | 449 kts | 257° |
| 2026-05-04 15:23 | 39.92148 | -123.38390 | 23053 ft | 446 kts | 258° |
| 2026-05-04 15:23 | 39.91469 | -123.42338 | 23046 ft | 448 kts | 258° |
| 2026-05-04 15:24 | 39.90031 | -123.50262 | 23049 ft | 449 kts | 257° |
| 2026-05-04 15:24 | 39.88606 | -123.58163 | 23048 ft | 450 kts | 258° |
| 2026-05-04 15:25 | 39.87890 | -123.62136 | 23052 ft | 450 kts | 258° |
| 2026-05-04 15:25 | 39.87174 | -123.66050 | 23052 ft | 449 kts | 258° |
| 2026-05-04 15:25 | 39.86453 | -123.69999 | 23051 ft | 448 kts | 258° |
| 2026-05-04 15:26 | 39.85012 | -123.77913 | 23051 ft | 451 kts | 258° |
| 2026-05-04 15:26 | 39.84284 | -123.81878 | 23049 ft | 450 kts | 258° |
| 2026-05-04 15:26 | 39.82828 | -123.89792 | 23051 ft | 450 kts | 257° |
| 2026-05-04 15:27 | 39.82098 | -123.93759 | 23048 ft | 452 kts | 258° |
| 2026-05-04 15:27 | 39.80631 | -124.01688 | 23048 ft | 449 kts | 257° |
| 2026-05-04 15:28 | 39.77833 | -124.08849 | 23061 ft | 450 kts | 223° |
| 2026-05-04 15:28 | 39.75382 | -124.11322 | 23063 ft | 444 kts | 205° |
| 2026-05-04 15:28 | 39.69576 | -124.13060 | 23069 ft | 423 kts | 171° |
| 2026-05-04 15:29 | 39.66727 | -124.12322 | 23065 ft | 413 kts | 154° |
| 2026-05-04 15:30 | 39.56845 | -124.05343 | 23061 ft | 405 kts | 145° |
| 2026-05-04 15:30 | 39.49438 | -123.99981 | 23064 ft | 406 kts | 145° |
| 2026-05-04 15:31 | 39.44522 | -123.96423 | 23062 ft | 405 kts | 145° |
| 2026-05-04 15:31 | 39.42059 | -123.94641 | 23061 ft | 406 kts | 145° |
| 2026-05-04 15:32 | 39.34664 | -123.89303 | 23063 ft | 405 kts | 145° |
| 2026-05-04 15:32 | 39.29729 | -123.85745 | 23062 ft | 406 kts | 146° |
| 2026-05-04 15:33 | 39.24793 | -123.82198 | 23064 ft | 405 kts | 146° |
| 2026-05-04 15:34 | 39.17391 | -123.76882 | 23064 ft | 406 kts | 146° |
| 2026-05-04 15:34 | 39.14928 | -123.75118 | 23062 ft | 406 kts | 146° |
| 2026-05-04 15:34 | 39.09991 | -123.71583 | 23062 ft | 406 kts | 146° |
| 2026-05-04 15:35 | 39.05053 | -123.68054 | 23063 ft | 406 kts | 146° |
| 2026-05-04 15:35 | 39.02583 | -123.66292 | 23063 ft | 406 kts | 146° |
| 2026-05-04 15:35 | 39.00147 | -123.64553 | 23063 ft | 406 kts | 146° |
| 2026-05-04 15:36 | 38.95230 | -123.60930 | 23059 ft | 403 kts | 143° |
| 2026-05-04 15:36 | 38.92829 | -123.59052 | 23061 ft | 405 kts | 144° |
| 2026-05-04 15:36 | 38.90434 | -123.57233 | 23060 ft | 406 kts | 144° |
| 2026-05-04 15:37 | 38.88016 | -123.55373 | 23059 ft | 404 kts | 144° |
| 2026-05-04 15:37 | 38.85619 | -123.53496 | 23060 ft | 404 kts | 143° |
| 2026-05-04 15:37 | 38.83217 | -123.51626 | 23060 ft | 404 kts | 144° |
| 2026-05-04 15:37 | 38.80810 | -123.49771 | 23060 ft | 405 kts | 144° |
| 2026-05-04 15:38 | 38.78393 | -123.47907 | 23061 ft | 404 kts | 144° |
| 2026-05-04 15:38 | 38.75991 | -123.46049 | 23061 ft | 404 kts | 144° |
| 2026-05-04 15:38 | 38.73584 | -123.44187 | 23060 ft | 404 kts | 144° |
| 2026-05-04 15:38 | 38.71168 | -123.42325 | 23059 ft | 405 kts | 144° |
| 2026-05-04 15:39 | 38.68752 | -123.40463 | 23063 ft | 406 kts | 144° |
| 2026-05-04 15:39 | 38.66335 | -123.38603 | 23061 ft | 405 kts | 144° |
| 2026-05-04 15:39 | 38.61522 | -123.34898 | 23057 ft | 404 kts | 144° |
| 2026-05-04 15:40 | 38.59111 | -123.33044 | 23056 ft | 405 kts | 144° |
| 2026-05-04 15:40 | 38.56699 | -123.31193 | 23058 ft | 404 kts | 144° |
| 2026-05-04 15:40 | 38.54289 | -123.29348 | 23057 ft | 404 kts | 144° |
| 2026-05-04 15:40 | 38.51880 | -123.27498 | 23056 ft | 405 kts | 144° |
| 2026-05-04 15:41 | 38.49464 | -123.25646 | 23057 ft | 405 kts | 144° |
| 2026-05-04 15:41 | 38.47045 | -123.23797 | 23058 ft | 405 kts | 144° |
| 2026-05-04 15:41 | 38.44665 | -123.21978 | 23058 ft | 404 kts | 144° |
| 2026-05-04 15:41 | 38.42255 | -123.20135 | 23056 ft | 404 kts | 144° |
| 2026-05-04 15:42 | 38.39840 | -123.18290 | 23057 ft | 405 kts | 144° |
| 2026-05-04 15:42 | 38.37420 | -123.16444 | 23059 ft | 405 kts | 144° |
| 2026-05-04 15:42 | 38.35004 | -123.14604 | 23058 ft | 404 kts | 144° |
| 2026-05-04 15:42 | 38.32598 | -123.12770 | 23057 ft | 404 kts | 144° |
| 2026-05-04 15:43 | 38.30178 | -123.10927 | 23058 ft | 405 kts | 144° |
| 2026-05-04 15:43 | 38.27755 | -123.09084 | 23058 ft | 406 kts | 144° |
| 2026-05-04 15:43 | 38.25329 | -123.07240 | 23059 ft | 406 kts | 144° |
| 2026-05-04 15:43 | 38.22830 | -123.05565 | 23056 ft | 408 kts | 153° |
| 2026-05-04 15:44 | 38.20180 | -123.04232 | 23062 ft | 411 kts | 155° |
| 2026-05-04 15:44 | 38.17498 | -123.02949 | 23061 ft | 412 kts | 154° |
| 2026-05-04 15:44 | 38.14830 | -123.01628 | 23062 ft | 410 kts | 154° |
| 2026-05-04 15:44 | 38.12184 | -123.00282 | 23061 ft | 409 kts | 154° |
| 2026-05-04 15:45 | 38.09532 | -122.98952 | 23061 ft | 411 kts | 154° |
| 2026-05-04 15:45 | 38.06865 | -122.97634 | 23062 ft | 412 kts | 154° |
| 2026-05-04 15:45 | 38.04207 | -122.96318 | 23062 ft | 410 kts | 154° |
| 2026-05-04 15:45 | 38.01554 | -122.94996 | 23061 ft | 410 kts | 154° |
| 2026-05-04 15:46 | 37.98899 | -122.93672 | 23062 ft | 411 kts | 154° |
| 2026-05-04 15:46 | 37.96236 | -122.92350 | 23064 ft | 411 kts | 155° |
| 2026-05-04 15:46 | 37.93580 | -122.91036 | 23063 ft | 409 kts | 155° |
| 2026-05-04 15:46 | 37.90928 | -122.89722 | 23061 ft | 410 kts | 155° |
| 2026-05-04 15:47 | 37.88267 | -122.88402 | 23062 ft | 411 kts | 155° |
| 2026-05-04 15:47 | 37.85603 | -122.87085 | 23063 ft | 410 kts | 155° |
| 2026-05-04 15:47 | 37.82942 | -122.85770 | 23062 ft | 409 kts | 155° |
| 2026-05-04 15:47 | 37.80293 | -122.84461 | 23062 ft | 410 kts | 155° |
| 2026-05-04 15:48 | 37.77662 | -122.83160 | 23063 ft | 411 kts | 155° |
| 2026-05-04 15:48 | 37.74968 | -122.81832 | 23063 ft | 411 kts | 156° |
| 2026-05-04 15:48 | 37.69679 | -122.79226 | 23063 ft | 410 kts | 156° |
| 2026-05-04 15:49 | 37.67019 | -122.77917 | 23063 ft | 411 kts | 156° |
| 2026-05-04 15:49 | 37.64358 | -122.76608 | 23064 ft | 411 kts | 156° |
| 2026-05-04 15:49 | 37.61691 | -122.75298 | 23063 ft | 410 kts | 156° |
| 2026-05-04 15:49 | 37.59039 | -122.73996 | 23062 ft | 409 kts | 156° |
| 2026-05-04 15:50 | 37.56383 | -122.72691 | 23063 ft | 410 kts | 156° |
| 2026-05-04 15:50 | 37.53719 | -122.71385 | 23063 ft | 411 kts | 156° |
| 2026-05-04 15:50 | 37.51056 | -122.70082 | 23064 ft | 410 kts | 156° |
| 2026-05-04 15:50 | 37.48394 | -122.68779 | 23063 ft | 409 kts | 156° |
| 2026-05-04 15:51 | 37.45738 | -122.67478 | 23064 ft | 410 kts | 156° |
| 2026-05-04 15:51 | 37.43075 | -122.66177 | 23065 ft | 411 kts | 156° |
| 2026-05-04 15:51 | 37.40411 | -122.64876 | 23064 ft | 410 kts | 156° |
| 2026-05-04 15:51 | 37.37753 | -122.63579 | 23063 ft | 409 kts | 156° |
| 2026-05-04 15:52 | 37.35098 | -122.62284 | 23064 ft | 410 kts | 156° |
| 2026-05-04 15:52 | 37.32436 | -122.60987 | 23063 ft | 411 kts | 156° |
| 2026-05-04 15:52 | 37.29771 | -122.59689 | 23065 ft | 410 kts | 157° |
| 2026-05-04 15:52 | 37.27111 | -122.58395 | 23064 ft | 409 kts | 157° |
| 2026-05-04 15:53 | 37.24457 | -122.57105 | 23062 ft | 409 kts | 157° |
| 2026-05-04 15:53 | 37.21834 | -122.55830 | 23063 ft | 410 kts | 157° |
| 2026-05-04 15:53 | 37.19171 | -122.54536 | 23065 ft | 410 kts | 157° |
| 2026-05-04 15:53 | 37.16510 | -122.53246 | 23065 ft | 409 kts | 157° |
| 2026-05-04 15:54 | 37.13924 | -122.51775 | 23062 ft | 407 kts | 149° |
| 2026-05-04 15:54 | 37.11500 | -122.49948 | 23069 ft | 408 kts | 147° |
| 2026-05-04 15:54 | 37.09083 | -122.48050 | 23069 ft | 409 kts | 147° |
| 2026-05-04 15:54 | 37.06656 | -122.46198 | 23072 ft | 408 kts | 148° |
| 2026-05-04 15:55 | 37.04222 | -122.44384 | 23072 ft | 407 kts | 148° |
| 2026-05-04 15:55 | 37.01793 | -122.42554 | 23073 ft | 408 kts | 148° |
| 2026-05-04 15:55 | 36.99363 | -122.40702 | 23070 ft | 409 kts | 148° |
| 2026-05-04 15:55 | 36.96930 | -122.38859 | 23071 ft | 408 kts | 148° |
| 2026-05-04 15:56 | 36.94500 | -122.37029 | 23070 ft | 407 kts | 148° |
| 2026-05-04 15:56 | 36.92071 | -122.35197 | 23071 ft | 408 kts | 148° |
| 2026-05-04 15:56 | 36.89661 | -122.33378 | 23073 ft | 410 kts | 149° |
| 2026-05-04 15:56 | 36.87222 | -122.31538 | 23071 ft | 409 kts | 149° |
| 2026-05-04 15:57 | 36.84784 | -122.29705 | 23071 ft | 408 kts | 149° |
| 2026-05-04 15:57 | 36.82358 | -122.27880 | 23072 ft | 407 kts | 149° |
| 2026-05-04 15:57 | 36.79935 | -122.26056 | 23071 ft | 407 kts | 149° |
| 2026-05-04 15:57 | 36.77509 | -122.24232 | 23071 ft | 407 kts | 149° |
| 2026-05-04 15:58 | 36.75077 | -122.22408 | 23071 ft | 409 kts | 149° |
| 2026-05-04 15:58 | 36.72591 | -122.20701 | 23029 ft | 400 kts | 187° |
| 2026-05-04 15:58 | 36.70366 | -122.20328 | 19956 ft | 278 kts | 161° |
| 2026-05-04 15:58 | 36.68753 | -122.20570 | 11492 ft | 271 kts | 272° |
| 2026-05-04 15:59 | 36.69319 | -122.20487 | 4652 ft | 290 kts | 143° |
| 2026-05-04 15:59 | 36.69976 | -122.21742 | 1074 ft | 183 kts | 346° |
| 2026-05-04 15:59 | 36.70845 | -122.21784 | 537 ft | 195 kts | 339° |
| 2026-05-04 15:59 | 36.71185 | -122.21512 | 0 ft | 42 kts | 95° |
| 2026-05-04 16:00 | 36.71297 | -122.21249 | 0 ft | 27 kts | 60° |
| 2026-05-04 16:00 | 36.71346 | -122.21101 | 0 ft | 10 kts | 70° |
| 2026-05-04 16:00 | 36.71346 | -122.21073 | 0 ft | 2 kts | 73° |
| 2026-05-04 16:00 | 36.71329 | -122.21066 | 0 ft | 3 kts | 73° |
| 2026-05-04 16:01 | 36.71301 | -122.21055 | 0 ft | 5 kts | 73° |
| 2026-05-04 16:01 | 36.71263 | -122.21039 | 0 ft | 7 kts | 73° |
| 2026-05-04 16:01 | 36.71215 | -122.21020 | 0 ft | 8 kts | 72° |
| 2026-05-04 16:01 | 36.71159 | -122.20997 | 0 ft | 9 kts | 72° |
| 2026-05-04 16:02 | 36.71096 | -122.20971 | 0 ft | 10 kts | 72° |
| 2026-05-04 16:02 | 36.71026 | -122.20942 | 1 ft | 11 kts | 72° |
| 2026-05-04 16:02 | 36.70870 | -122.20878 | 0 ft | 12 kts | 72° |
| 2026-05-04 16:03 | 36.70786 | -122.20844 | 0 ft | 13 kts | 72° |
| 2026-05-04 16:03 | 36.70698 | -122.20808 | 1 ft | 13 kts | 72° |
| 2026-05-04 16:03 | 36.70608 | -122.20771 | 0 ft | 14 kts | 72° |
| 2026-05-04 16:03 | 36.70515 | -122.20732 | 0 ft | 14 kts | 72° |
| 2026-05-04 16:04 | 36.70420 | -122.20694 | 0 ft | 15 kts | 72° |
| 2026-05-04 16:04 | 36.70225 | -122.20614 | 0 ft | 15 kts | 72° |
| 2026-05-04 16:04 | 36.70126 | -122.20573 | 0 ft | 15 kts | 72° |
| 2026-05-04 16:05 | 36.70025 | -122.20532 | 0 ft | 15 kts | 72° |
| 2026-05-04 16:05 | 36.69924 | -122.20491 | 0 ft | 15 kts | 72° |
| 2026-05-04 16:05 | 36.69719 | -122.20408 | 0 ft | 16 kts | 73° |
| 2026-05-04 16:06 | 36.69616 | -122.20366 | 0 ft | 16 kts | 73° |
| 2026-05-04 16:06 | 36.69340 | -122.20255 | 0 ft | 16 kts | 73° |
| 2026-05-04 16:07 | 36.69200 | -122.20199 | 0 ft | 16 kts | 73° |
| 2026-05-04 16:07 | 36.68888 | -122.20075 | 0 ft | 16 kts | 73° |
| 2026-05-04 16:08 | 36.68783 | -122.20032 | 0 ft | 16 kts | 73° |